Climatologie pour Saint-Brevin les Pins
Jour • Résumé pour février 25, 2017 Système :  Métrique    Anglais   Mixte
« - 1 jour
+ 1 jour »
Jour Semaine Mois Année Personnalisé
  Maximum : Minimum : Moyenne :
Température sous abri : 11.9 °C 2.3 °C 7.1 °C
Point de rosée : 8.6 °C 2.0 °C 5.3 °C
Humidité : 99 % 70 % 89 %
Vitesse du vent : 24.1 km/h 0.0 km/h 7.1 km/h
Rafale : 35.4 km/h - -
Direction :- - South
Pression : 1022.9 hPa 1016.8 hPa -
Précipitations : 0.0 mm    
Historical Graphs
 
 
Tableau de données pour février 25, 2017
Heure Tempé Pt rosée Pression Vent Vitesse Rafale Humidité Taux pluie (/hr) Soleil
00:00 2.9 °C 2.3 °C 1022.9 hPa Calm   3.2 km/h 96 % 0.0 mm 0 W/m2
00:10 3.0 °C 2.4 °C 1022.9 hPa SSW 1.6 km/h 4.8 km/h 96 % 0.0 mm 0 W/m2
00:15 3.2 °C 2.6 °C 1022.9 hPa SSW 1.6 km/h 4.8 km/h 96 % 0.0 mm 0 W/m2
00:20 3.4 °C 2.8 °C 1022.9 hPa SSW 1.6 km/h 3.2 km/h 96 % 0.0 mm 0 W/m2
00:25 3.3 °C 2.7 °C 1022.9 hPa SSW 1.6 km/h 3.2 km/h 96 % 0.0 mm 0 W/m2
00:30 3.2 °C 2.6 °C 1022.9 hPa SSW 3.2 km/h 4.8 km/h 96 % 0.0 mm 0 W/m2
00:35 3.2 °C 2.6 °C 1022.9 hPa Calm   4.8 km/h 96 % 0.0 mm 0 W/m2
00:40 3.3 °C 2.9 °C 1022.9 hPa Calm   3.2 km/h 97 % 0.0 mm 0 W/m2
00:45 3.6 °C 3.1 °C 1022.9 hPa SSW 3.2 km/h 3.2 km/h 97 % 0.0 mm 0 W/m2
00:55 2.8 °C 2.3 °C 1022.9 hPa Calm   3.2 km/h 96 % 0.0 mm 0 W/m2
01:00 2.7 °C 2.1 °C 1022.9 hPa Calm     96 % 0.0 mm 0 W/m2
01:05 2.8 °C 2.3 °C 1022.9 hPa Calm   1.6 km/h 97 % 0.0 mm 0 W/m2
01:10 2.6 °C 2.0 °C 1022.9 hPa SSW 3.2 km/h 3.2 km/h 96 % 0.0 mm 0 W/m2
01:15 2.7 °C 2.3 °C 1022.9 hPa Calm   3.2 km/h 97 % 0.0 mm 0 W/m2
01:20 2.6 °C 2.1 °C 1022.9 hPa Calm   3.2 km/h 97 % 0.0 mm 0 W/m2
01:25 2.7 °C 2.2 °C 1022.9 hPa Calm   1.6 km/h 97 % 0.0 mm 0 W/m2
01:30 2.7 °C 2.2 °C 1022.6 hPa Calm   1.6 km/h 97 % 0.0 mm 0 W/m2
01:40 2.7 °C 2.2 °C 1022.6 hPa SSW 4.8 km/h 6.4 km/h 97 % 0.0 mm 0 W/m2
01:45 2.9 °C 2.5 °C 1022.6 hPa SSW 1.6 km/h 6.4 km/h 97 % 0.0 mm 0 W/m2
01:50 3.2 °C 2.7 °C 1022.6 hPa SSW 1.6 km/h 4.8 km/h 97 % 0.0 mm 0 W/m2
01:55 3.2 °C 2.7 °C 1022.6 hPa SSW 1.6 km/h 4.8 km/h 97 % 0.0 mm 0 W/m2
02:00 3.2 °C 2.7 °C 1022.2 hPa SSW 3.2 km/h 4.8 km/h 97 % 0.0 mm 0 W/m2
02:05 3.1 °C 2.6 °C 1022.2 hPa SSW 1.6 km/h 4.8 km/h 97 % 0.0 mm 0 W/m2
02:10 2.9 °C 2.5 °C 1022.2 hPa SSW 3.2 km/h 4.8 km/h 97 % 0.0 mm 0 W/m2
02:15 3.0 °C 2.6 °C 1022.2 hPa Calm   4.8 km/h 97 % 0.0 mm 0 W/m2
02:25 2.8 °C 2.4 °C 1022.2 hPa Calm   1.6 km/h 97 % 0.0 mm 0 W/m2
02:30 2.7 °C 2.3 °C 1022.2 hPa SSW 1.6 km/h 3.2 km/h 97 % 0.0 mm 0 W/m2
02:35 2.7 °C 2.3 °C 1022.2 hPa Calm   3.2 km/h 97 % 0.0 mm 0 W/m2
02:40 2.6 °C 2.2 °C 1021.9 hPa SSW 1.6 km/h 3.2 km/h 97 % 0.0 mm 0 W/m2
02:45 2.6 °C 2.1 °C 1021.9 hPa Calm   4.8 km/h 97 % 0.0 mm 0 W/m2
02:50 2.5 °C 2.1 °C 1021.9 hPa SSW 3.2 km/h 4.8 km/h 97 % 0.0 mm 0 W/m2
02:55 2.6 °C 2.1 °C 1021.9 hPa SSW 3.2 km/h 4.8 km/h 97 % 0.0 mm 0 W/m2
03:00 2.6 °C 2.2 °C 1021.9 hPa Calm   4.8 km/h 97 % 0.0 mm 0 W/m2
03:10 2.8 °C 2.5 °C 1021.9 hPa Calm   3.2 km/h 98 % 0.0 mm 0 W/m2
03:15 2.8 °C 2.3 °C 1021.9 hPa SSW 1.6 km/h 1.6 km/h 97 % 0.0 mm 0 W/m2
03:20 2.7 °C 2.2 °C 1021.9 hPa Calm   3.2 km/h 97 % 0.0 mm 0 W/m2
03:25 2.6 °C 2.1 °C 1021.9 hPa SSW 3.2 km/h 3.2 km/h 97 % 0.0 mm 0 W/m2
03:30 2.5 °C 2.1 °C 1021.6 hPa SSW 3.2 km/h 4.8 km/h 97 % 0.0 mm 0 W/m2
03:40 2.7 °C 2.2 °C 1021.6 hPa SSE 4.8 km/h 6.4 km/h 97 % 0.0 mm 0 W/m2
03:45 2.7 °C 2.3 °C 1021.6 hPa SSE 3.2 km/h 4.8 km/h 97 % 0.0 mm 0 W/m2
03:55 2.8 °C 2.5 °C 1021.6 hPa SSE 3.2 km/h 4.8 km/h 98 % 0.0 mm 0 W/m2
04:00 2.7 °C 2.4 °C 1021.2 hPa SSE 1.6 km/h 4.8 km/h 98 % 0.0 mm 0 W/m2
04:05 2.8 °C 2.3 °C 1021.2 hPa SSE 3.2 km/h 4.8 km/h 97 % 0.0 mm 0 W/m2
04:10 2.9 °C 2.6 °C 1021.2 hPa SSE 1.6 km/h 4.8 km/h 98 % 0.0 mm 0 W/m2
04:20 2.9 °C 2.7 °C 1021.2 hPa SSE 4.8 km/h 4.8 km/h 98 % 0.0 mm 0 W/m2
04:25 2.9 °C 2.7 °C 1021.2 hPa Calm   4.8 km/h 98 % 0.0 mm 0 W/m2
04:30 2.8 °C 2.5 °C 1021.2 hPa SSE 3.2 km/h 4.8 km/h 98 % 0.0 mm 0 W/m2
04:40 2.7 °C 2.4 °C 1021.2 hPa SSE 3.2 km/h 4.8 km/h 98 % 0.0 mm 0 W/m2
04:45 2.6 °C 2.3 °C 1020.9 hPa Calm   4.8 km/h 98 % 0.0 mm 0 W/m2
04:50 2.5 °C 2.2 °C 1021.2 hPa SSE 1.6 km/h 3.2 km/h 98 % 0.0 mm 0 W/m2
04:55 2.6 °C 2.3 °C 1021.2 hPa SSE 3.2 km/h 4.8 km/h 98 % 0.0 mm 0 W/m2
05:00 2.6 °C 2.3 °C 1021.2 hPa SSE 3.2 km/h 4.8 km/h 98 % 0.0 mm 0 W/m2
05:05 2.8 °C 2.5 °C 1021.2 hPa SSE 4.8 km/h 4.8 km/h 98 % 0.0 mm 0 W/m2
05:10 2.8 °C 2.5 °C 1021.2 hPa Calm   4.8 km/h 98 % 0.0 mm 0 W/m2
05:15 2.7 °C 2.4 °C 1021.2 hPa SSE 3.2 km/h 4.8 km/h 98 % 0.0 mm 0 W/m2
05:25 2.7 °C 2.4 °C 1021.2 hPa SSE 3.2 km/h 3.2 km/h 98 % 0.0 mm 0 W/m2
05:30 2.7 °C 2.4 °C 1021.2 hPa Calm   3.2 km/h 98 % 0.0 mm 0 W/m2
05:35 2.6 °C 2.3 °C 1021.2 hPa SSE 3.2 km/h 4.8 km/h 98 % 0.0 mm 0 W/m2
05:40 2.5 °C 2.2 °C 1021.2 hPa SSE 3.2 km/h 4.8 km/h 98 % 0.0 mm 0 W/m2
05:45 2.4 °C 2.1 °C 1021.2 hPa Calm   4.8 km/h 98 % 0.0 mm 0 W/m2
05:50 2.5 °C 2.2 °C 1021.2 hPa SSE 4.8 km/h 4.8 km/h 98 % 0.0 mm 0 W/m2
05:55 2.4 °C 2.2 °C 1021.2 hPa Calm   4.8 km/h 98 % 0.0 mm 0 W/m2
06:00 2.4 °C 2.1 °C 1021.2 hPa SSE 3.2 km/h 4.8 km/h 98 % 0.0 mm 0 W/m2
06:10 2.4 °C 2.1 °C 1021.2 hPa Calm   3.2 km/h 98 % 0.0 mm 0 W/m2
06:15 2.6 °C 2.3 °C 1021.2 hPa Calm   4.8 km/h 98 % 0.0 mm 0 W/m2
06:20 2.6 °C 2.3 °C 1021.2 hPa SSE 1.6 km/h 4.8 km/h 98 % 0.0 mm 0 W/m2
06:25 2.5 °C 2.2 °C 1021.2 hPa SSE 3.2 km/h 4.8 km/h 98 % 0.0 mm 0 W/m2
06:30 2.6 °C 2.3 °C 1021.2 hPa SSE 1.6 km/h 4.8 km/h 98 % 0.0 mm 0 W/m2
06:35 2.5 °C 2.2 °C 1021.2 hPa SSE 1.6 km/h 4.8 km/h 98 % 0.0 mm 0 W/m2
06:40 2.4 °C 2.2 °C 1021.2 hPa SSE 3.2 km/h 4.8 km/h 98 % 0.0 mm 0 W/m2
06:45 2.3 °C 2.0 °C 1021.2 hPa SSE 3.2 km/h 4.8 km/h 98 % 0.0 mm 0 W/m2
06:55 2.6 °C 2.3 °C 1021.2 hPa SSE 1.6 km/h 4.8 km/h 98 % 0.0 mm 0 W/m2
07:00 2.6 °C 2.3 °C 1021.2 hPa SSE 3.2 km/h 4.8 km/h 98 % 0.0 mm 0 W/m2
07:05 2.6 °C 2.3 °C 1021.2 hPa SSE 3.2 km/h 4.8 km/h 98 % 0.0 mm 0 W/m2
07:10 2.6 °C 2.3 °C 1021.2 hPa SSE 3.2 km/h 4.8 km/h 98 % 0.0 mm 0 W/m2
07:15 2.7 °C 2.4 °C 1021.2 hPa Calm   4.8 km/h 98 % 0.0 mm 0 W/m2
07:20 2.7 °C 2.4 °C 1021.6 hPa SSE 3.2 km/h 4.8 km/h 98 % 0.0 mm 0 W/m2
07:25 2.7 °C 2.4 °C 1021.2 hPa Calm   4.8 km/h 98 % 0.0 mm 0 W/m2
07:30 2.7 °C 2.4 °C 1021.2 hPa SE 3.2 km/h 4.8 km/h 98 % 0.0 mm 0 W/m2
07:40 3.1 °C 2.8 °C 1021.2 hPa SSE 6.4 km/h 8.0 km/h 98 % 0.0 mm 0 W/m2
07:45 3.1 °C 2.8 °C 1021.2 hPa SSE 4.8 km/h 6.4 km/h 98 % 0.0 mm 5 W/m2
07:50 3.1 °C 2.8 °C 1021.2 hPa SE 6.4 km/h 8.0 km/h 98 % 0.0 mm 7 W/m2
07:55 3.2 °C 2.9 °C 1021.2 hPa SSE 1.6 km/h 8.0 km/h 98 % 0.0 mm 9 W/m2
08:00 3.2 °C 2.9 °C 1021.2 hPa SE 3.2 km/h 8.0 km/h 98 % 0.0 mm 7 W/m2
08:05 3.4 °C 3.3 °C 1021.6 hPa SE 4.8 km/h 8.0 km/h 99 % 0.0 mm 11 W/m2
08:10 3.7 °C 3.4 °C 1021.2 hPa SSE 4.8 km/h 6.4 km/h 98 % 0.0 mm 14 W/m2
08:15 3.9 °C 3.6 °C 1021.6 hPa SSE 4.8 km/h 9.7 km/h 98 % 0.0 mm 19 W/m2
08:25 4.6 °C 4.4 °C 1021.6 hPa SSE 4.8 km/h 9.7 km/h 99 % 0.0 mm 25 W/m2
08:30 4.8 °C 4.7 °C 1021.2 hPa SSE 3.2 km/h 9.7 km/h 99 % 0.0 mm 30 W/m2
08:35 5.1 °C 4.9 °C 1021.6 hPa SSE 9.7 km/h 9.7 km/h 99 % 0.0 mm 42 W/m2
08:40 5.2 °C 5.0 °C 1021.2 hPa SSE 8.0 km/h 9.7 km/h 99 % 0.0 mm 46 W/m2
08:45 5.3 °C 5.1 °C 1021.6 hPa SSE 1.6 km/h 9.7 km/h 99 % 0.0 mm 51 W/m2
08:50 5.3 °C 5.2 °C 1021.6 hPa SSE 4.8 km/h 9.7 km/h 99 % 0.0 mm 53 W/m2
08:55 5.4 °C 5.2 °C 1021.6 hPa SSE 1.6 km/h 6.4 km/h 99 % 0.0 mm 62 W/m2
09:00 5.5 °C 5.4 °C 1021.6 hPa South 6.4 km/h 11.3 km/h 99 % 0.0 mm 63 W/m2
09:10 5.8 °C 5.7 °C 1021.2 hPa South 6.4 km/h 14.5 km/h 99 % 0.0 mm 67 W/m2
09:15 5.9 °C 5.8 °C 1021.2 hPa SSE 6.4 km/h 14.5 km/h 99 % 0.0 mm 70 W/m2
09:20 6.1 °C 5.9 °C 1021.2 hPa SSE 4.8 km/h 11.3 km/h 99 % 0.0 mm 76 W/m2
09:25 6.2 °C 6.1 °C 1021.6 hPa SSW 8.0 km/h 12.9 km/h 99 % 0.0 mm 77 W/m2
09:30 6.4 °C 6.3 °C 1021.2 hPa South 9.7 km/h 12.9 km/h 99 % 0.0 mm 81 W/m2
09:35 6.7 °C 6.5 °C 1021.6 hPa South 6.4 km/h 11.3 km/h 99 % 0.0 mm 77 W/m2
09:40 6.8 °C 6.6 °C 1021.6 hPa SSE 8.0 km/h 12.9 km/h 99 % 0.0 mm 72 W/m2
09:45 6.9 °C 6.7 °C 1021.6 hPa South 6.4 km/h 12.9 km/h 99 % 0.0 mm 69 W/m2
09:55 7.1 °C 6.9 °C 1021.2 hPa SSE 8.0 km/h 12.9 km/h 99 % 0.0 mm 72 W/m2
10:00 7.2 °C 7.1 °C 1021.6 hPa South 6.4 km/h 12.9 km/h 99 % 0.0 mm 79 W/m2
10:05 7.4 °C 7.2 °C 1021.6 hPa SSE 14.5 km/h 14.5 km/h 99 % 0.0 mm 204 W/m2
10:10 7.5 °C 7.4 °C 1021.6 hPa South 6.4 km/h 14.5 km/h 99 % 0.0 mm 311 W/m2
10:15 7.8 °C 7.7 °C 1021.6 hPa SSW 6.4 km/h 14.5 km/h 99 % 0.0 mm 338 W/m2
10:20 8.1 °C 8.0 °C 1021.6 hPa SSE 6.4 km/h 14.5 km/h 99 % 0.0 mm 295 W/m2
10:25 8.2 °C 7.9 °C 1021.6 hPa South 9.7 km/h 14.5 km/h 98 % 0.0 mm 258 W/m2
10:30 8.4 °C 8.1 °C 1021.6 hPa South 14.5 km/h 14.5 km/h 98 % 0.0 mm 362 W/m2
10:40 9.1 °C 8.6 °C 1021.9 hPa SSW 6.4 km/h 17.7 km/h 97 % 0.0 mm 346 W/m2
10:45 9.1 °C 8.4 °C 1021.9 hPa South 3.2 km/h 19.3 km/h 95 % 0.0 mm 411 W/m2
10:50 9.3 °C 8.3 °C 1021.9 hPa South 11.3 km/h 19.3 km/h 93 % 0.0 mm 301 W/m2
10:55 9.4 °C 8.2 °C 1021.9 hPa South 8.0 km/h 16.1 km/h 92 % 0.0 mm 369 W/m2
11:00 9.6 °C 8.0 °C 1021.9 hPa SSW 9.7 km/h 17.7 km/h 90 % 0.0 mm 366 W/m2
11:05 9.6 °C 7.9 °C 1021.6 hPa SSW 19.3 km/h 20.9 km/h 89 % 0.0 mm 371 W/m2
11:10 9.6 °C 7.7 °C 1021.6 hPa SW 19.3 km/h 20.9 km/h 88 % 0.0 mm 352 W/m2
11:15 9.7 °C 7.8 °C 1021.6 hPa South 6.4 km/h 22.5 km/h 88 % 0.0 mm 413 W/m2
11:25 10.0 °C 7.8 °C 1021.6 hPa South 8.0 km/h 20.9 km/h 86 % 0.0 mm 424 W/m2
11:30 10.0 °C 7.8 °C 1021.6 hPa SSW 12.9 km/h 20.9 km/h 86 % 0.0 mm 448 W/m2
11:35 10.2 °C 7.9 °C 1021.6 hPa SSW 17.7 km/h 24.1 km/h 86 % 0.0 mm 459 W/m2
11:40 10.6 °C 8.3 °C 1021.6 hPa SW 4.8 km/h 24.1 km/h 86 % 0.0 mm 513 W/m2
11:45 10.7 °C 8.1 °C 1021.6 hPa SSW 8.0 km/h 22.5 km/h 84 % 0.0 mm 478 W/m2
11:50 10.8 °C 8.2 °C 1021.6 hPa SSW 14.5 km/h 22.5 km/h 84 % 0.0 mm 478 W/m2
11:55 10.7 °C 8.1 °C 1021.2 hPa SSW 14.5 km/h 22.5 km/h 84 % 0.0 mm 471 W/m2
12:00 10.8 °C 8.2 °C 1021.2 hPa West 20.9 km/h 27.4 km/h 84 % 0.0 mm 388 W/m2
12:10 10.8 °C 8.1 °C 1021.2 hPa SW 9.7 km/h 24.1 km/h 83 % 0.0 mm 399 W/m2
12:15 10.8 °C 8.0 °C 1021.2 hPa South 8.0 km/h 24.1 km/h 83 % 0.0 mm 432 W/m2
12:20 10.9 °C 7.8 °C 1021.2 hPa SW 9.7 km/h 25.7 km/h 81 % 0.0 mm 427 W/m2
12:25 10.9 °C 7.8 °C 1020.9 hPa SSW 4.8 km/h 25.7 km/h 81 % 0.0 mm 504 W/m2
12:30 11.0 °C 7.7 °C 1020.9 hPa SW 8.0 km/h 24.1 km/h 80 % 0.0 mm 483 W/m2
12:35 11.1 °C 7.6 °C 1020.9 hPa WSW 12.9 km/h 24.1 km/h 79 % 0.0 mm 492 W/m2
12:40 11.5 °C 8.2 °C 1020.9 hPa SSW 8.0 km/h 22.5 km/h 80 % 0.0 mm 517 W/m2
12:45 11.5 °C 7.6 °C 1020.9 hPa South 12.9 km/h 27.4 km/h 77 % 0.0 mm 436 W/m2
12:55 11.4 °C 7.5 °C 1020.5 hPa SSW 9.7 km/h 29.0 km/h 77 % 0.0 mm 536 W/m2
13:00 11.4 °C 7.3 °C 1020.5 hPa SSW 16.1 km/h 29.0 km/h 76 % 0.0 mm 432 W/m2
13:05 11.4 °C 7.3 °C 1020.5 hPa SSE 19.3 km/h 29.0 km/h 76 % 0.0 mm 429 W/m2
13:10 11.4 °C 7.5 °C 1020.5 hPa SSW 12.9 km/h 29.0 km/h 77 % 0.0 mm 497 W/m2
13:15 11.3 °C 7.1 °C 1020.5 hPa SSW 14.5 km/h 32.2 km/h 75 % 0.0 mm 457 W/m2
13:20 11.3 °C 7.3 °C 1020.2 hPa SSW 16.1 km/h 32.2 km/h 76 % 0.0 mm 378 W/m2
13:25 11.1 °C 7.2 °C 1020.2 hPa SSW 16.1 km/h 30.6 km/h 77 % 0.0 mm 355 W/m2
13:30 11.2 °C 7.3 °C 1020.2 hPa SSW 8.0 km/h 29.0 km/h 77 % 0.0 mm 420 W/m2
13:40 11.5 °C 7.6 °C 1020.2 hPa SW 11.3 km/h 20.9 km/h 77 % 0.0 mm 497 W/m2
13:45 11.6 °C 7.5 °C 1020.2 hPa SSW 11.3 km/h 27.4 km/h 76 % 0.0 mm 485 W/m2
13:50 11.6 °C 7.7 °C 1020.2 hPa South 22.5 km/h 29.0 km/h 77 % 0.0 mm 580 W/m2
13:55 11.7 °C 7.8 °C 1020.2 hPa SSW 6.4 km/h 29.0 km/h 77 % 0.0 mm 570 W/m2
14:00 11.9 °C 7.8 °C 1020.2 hPa SSW 12.9 km/h 27.4 km/h 76 % 0.0 mm 490 W/m2
14:05 11.5 °C 7.4 °C 1019.9 hPa SSW 16.1 km/h 27.4 km/h 76 % 0.0 mm 485 W/m2
14:10 11.4 °C 7.6 °C 1019.9 hPa South 12.9 km/h 27.4 km/h 77 % 0.0 mm 380 W/m2
14:15 11.5 °C 7.6 °C 1019.9 hPa SSW 16.1 km/h 25.7 km/h 77 % 0.0 mm 469 W/m2
14:25 11.7 °C 7.6 °C 1019.5 hPa SSW 11.3 km/h 27.4 km/h 76 % 0.0 mm 468 W/m2
14:30 11.6 °C 7.5 °C 1019.5 hPa South 14.5 km/h 29.0 km/h 76 % 0.0 mm 392 W/m2
14:35 11.6 °C 7.5 °C 1019.5 hPa SSW 16.1 km/h 29.0 km/h 76 % 0.0 mm 512 W/m2
14:40 11.7 °C 7.6 °C 1019.5 hPa South 14.5 km/h 29.0 km/h 76 % 0.0 mm 554 W/m2
14:45 11.8 °C 7.5 °C 1019.5 hPa South 16.1 km/h 29.0 km/h 75 % 0.0 mm 519 W/m2
14:50 11.7 °C 7.6 °C 1019.5 hPa South 12.9 km/h 29.0 km/h 76 % 0.0 mm 482 W/m2
14:55 11.8 °C 7.7 °C 1019.5 hPa SSE 14.5 km/h 29.0 km/h 76 % 0.0 mm 503 W/m2
15:00 11.8 °C 7.5 °C 1019.5 hPa South 12.9 km/h 29.0 km/h 75 % 0.0 mm 445 W/m2
15:05 11.7 °C 7.4 °C 1019.5 hPa South 17.7 km/h 29.0 km/h 75 % 0.0 mm 476 W/m2
15:10 11.8 °C 7.7 °C 1019.2 hPa South 24.1 km/h 25.7 km/h 76 % 0.0 mm 512 W/m2
15:15 11.7 °C 7.2 °C 1019.2 hPa South 24.1 km/h 29.0 km/h 74 % 0.0 mm 431 W/m2
15:20 11.3 °C 6.9 °C 1019.2 hPa SSW 12.9 km/h 30.6 km/h 74 % 0.0 mm 394 W/m2
15:25 11.3 °C 6.7 °C 1019.2 hPa SSW 11.3 km/h 30.6 km/h 73 % 0.0 mm 427 W/m2
15:30 11.3 °C 6.7 °C 1019.2 hPa SSE 9.7 km/h 27.4 km/h 73 % 0.0 mm 362 W/m2
15:35 11.4 °C 7.0 °C 1018.8 hPa SSW 8.0 km/h 32.2 km/h 74 % 0.0 mm 413 W/m2
15:40 11.3 °C 6.9 °C 1018.8 hPa SSW 14.5 km/h 32.2 km/h 74 % 0.0 mm 338 W/m2
15:45 11.0 °C 6.5 °C 1018.8 hPa SW 12.9 km/h 30.6 km/h 74 % 0.0 mm 374 W/m2
15:55 11.4 °C 6.4 °C 1018.5 hPa South 19.3 km/h 29.0 km/h 71 % 0.0 mm 410 W/m2
16:00 11.2 °C 6.3 °C 1018.5 hPa SSW 6.4 km/h 32.2 km/h 72 % 0.0 mm 410 W/m2
16:05 11.1 °C 6.3 °C 1018.5 hPa SSW 9.7 km/h 32.2 km/h 72 % 0.0 mm 392 W/m2
16:10 11.2 °C 6.3 °C 1018.5 hPa SSW 14.5 km/h 25.7 km/h 72 % 0.0 mm 304 W/m2
16:15 11.2 °C 6.4 °C 1018.5 hPa SSW 20.9 km/h 22.5 km/h 72 % 0.0 mm 271 W/m2
16:25 10.8 °C 6.0 °C 1018.5 hPa South 9.7 km/h 35.4 km/h 72 % 0.0 mm 316 W/m2
16:30 10.8 °C 5.6 °C 1018.5 hPa South 12.9 km/h 35.4 km/h 70 % 0.0 mm 225 W/m2
16:40 10.5 °C 5.9 °C 1018.5 hPa South 6.4 km/h 19.3 km/h 73 % 0.0 mm 174 W/m2
16:45 10.4 °C 5.8 °C 1018.2 hPa South 11.3 km/h 19.3 km/h 73 % 0.0 mm 178 W/m2
16:50 10.3 °C 5.4 °C 1018.5 hPa South 9.7 km/h 19.3 km/h 72 % 0.0 mm 167 W/m2
16:55 10.3 °C 5.6 °C 1018.5 hPa South 4.8 km/h 19.3 km/h 73 % 0.0 mm 156 W/m2
17:00 10.3 °C 5.7 °C 1018.5 hPa South 9.7 km/h 20.9 km/h 73 % 0.0 mm 151 W/m2
17:05 10.2 °C 5.7 °C 1018.5 hPa SSW 9.7 km/h 20.9 km/h 74 % 0.0 mm 130 W/m2
17:10 10.1 °C 5.8 °C 1018.5 hPa South 8.0 km/h 19.3 km/h 75 % 0.0 mm 121 W/m2
17:15 10.0 °C 6.0 °C 1018.5 hPa WSW 4.8 km/h 20.9 km/h 76 % 0.0 mm 116 W/m2
17:25 9.9 °C 5.9 °C 1018.5 hPa SSW 8.0 km/h 19.3 km/h 76 % 0.0 mm 104 W/m2
17:30 9.8 °C 5.8 °C 1018.2 hPa South 9.7 km/h 19.3 km/h 76 % 0.0 mm 97 W/m2
17:35 9.8 °C 5.9 °C 1018.2 hPa South 17.7 km/h 19.3 km/h 77 % 0.0 mm 91 W/m2
17:40 9.7 °C 6.1 °C 1018.2 hPa SSW 12.9 km/h 19.3 km/h 78 % 0.0 mm 79 W/m2
17:45 9.6 °C 5.7 °C 1018.2 hPa SSW 11.3 km/h 19.3 km/h 77 % 0.0 mm 70 W/m2
17:50 9.5 °C 5.7 °C 1018.5 hPa SSW 8.0 km/h 19.3 km/h 77 % 0.0 mm 67 W/m2
17:55 9.4 °C 5.6 °C 1018.5 hPa SW 4.8 km/h 17.7 km/h 77 % 0.0 mm 63 W/m2
18:00 9.3 °C 5.7 °C 1018.5 hPa SSW 9.7 km/h 14.5 km/h 78 % 0.0 mm 58 W/m2
18:05 9.3 °C 5.9 °C 1018.5 hPa South 6.4 km/h 16.1 km/h 79 % 0.0 mm 54 W/m2
18:10 9.3 °C 5.8 °C 1018.5 hPa SSW 4.8 km/h 17.7 km/h 79 % 0.0 mm 51 W/m2
18:15 9.2 °C 5.8 °C 1018.5 hPa SSW 6.4 km/h 19.3 km/h 79 % 0.0 mm 44 W/m2
18:20 9.1 °C 5.7 °C 1018.5 hPa SSE 4.8 km/h 19.3 km/h 79 % 0.0 mm 37 W/m2
18:25 9.1 °C 5.6 °C 1018.5 hPa SSW 12.9 km/h 19.3 km/h 79 % 0.0 mm 30 W/m2
18:30 9.0 °C 5.6 °C 1018.2 hPa SSW 11.3 km/h 19.3 km/h 79 % 0.0 mm 23 W/m2
18:40 8.8 °C 5.6 °C 1018.2 hPa SSW 11.3 km/h 16.1 km/h 80 % 0.0 mm 11 W/m2
18:45 8.7 °C 5.6 °C 1018.2 hPa SW 11.3 km/h 16.1 km/h 81 % 0.0 mm 11 W/m2
18:55 8.6 °C 5.7 °C 1018.2 hPa South 8.0 km/h 17.7 km/h 82 % 0.0 mm 0 W/m2
19:00 8.6 °C 5.7 °C 1018.2 hPa SSW 9.7 km/h 17.7 km/h 82 % 0.0 mm 0 W/m2
19:05 8.4 °C 5.5 °C 1018.2 hPa SSW 8.0 km/h 17.7 km/h 82 % 0.0 mm 0 W/m2
19:10 8.4 °C 5.7 °C 1018.2 hPa South 6.4 km/h 17.7 km/h 83 % 0.0 mm 0 W/m2
19:15 8.3 °C 5.6 °C 1017.8 hPa SSE 12.9 km/h 17.7 km/h 83 % 0.0 mm 0 W/m2
19:20 8.3 °C 5.6 °C 1017.8 hPa South 9.7 km/h 17.7 km/h 83 % 0.0 mm 0 W/m2
19:25 8.2 °C 5.5 °C 1017.8 hPa South 8.0 km/h 17.7 km/h 83 % 0.0 mm 0 W/m2
19:30 8.2 °C 5.5 °C 1017.8 hPa SSE 8.0 km/h 14.5 km/h 83 % 0.0 mm 0 W/m2
19:40 8.1 °C 5.5 °C 1017.8 hPa SSW 12.9 km/h 14.5 km/h 84 % 0.0 mm 0 W/m2
19:45 8.0 °C 5.5 °C 1017.8 hPa SSW 9.7 km/h 14.5 km/h 84 % 0.0 mm 0 W/m2
19:50 7.9 °C 5.6 °C 1017.8 hPa SSW 6.4 km/h 16.1 km/h 85 % 0.0 mm 0 W/m2
19:55 8.0 °C 5.6 °C 1017.8 hPa South 8.0 km/h 20.9 km/h 85 % 0.0 mm 0 W/m2
20:00 8.0 °C 5.6 °C 1017.8 hPa SSW 6.4 km/h 20.9 km/h 85 % 0.0 mm 0 W/m2
20:10 8.0 °C 5.8 °C 1017.8 hPa SSW 4.8 km/h 16.1 km/h 86 % 0.0 mm 0 W/m2
20:15 7.9 °C 5.7 °C 1017.8 hPa SSE 6.4 km/h 16.1 km/h 86 % 0.0 mm 0 W/m2
20:25 7.9 °C 5.9 °C 1017.8 hPa SSW 4.8 km/h 12.9 km/h 87 % 0.0 mm 0 W/m2
20:30 7.9 °C 6.0 °C 1017.8 hPa SSW 11.3 km/h 11.3 km/h 88 % 0.0 mm 0 W/m2
20:35 7.9 °C 6.0 °C 1017.8 hPa SW 1.6 km/h 11.3 km/h 88 % 0.0 mm 0 W/m2
20:40 7.8 °C 6.1 °C 1017.8 hPa Calm   11.3 km/h 89 % 0.0 mm 0 W/m2
20:45 7.8 °C 6.1 °C 1017.8 hPa SSW 3.2 km/h 9.7 km/h 89 % 0.0 mm 0 W/m2
20:50 7.9 °C 6.2 °C 1017.8 hPa SSW 6.4 km/h 8.0 km/h 89 % 0.0 mm 0 W/m2
20:55 8.1 °C 6.4 °C 1017.8 hPa South 4.8 km/h 12.9 km/h 89 % 0.0 mm 0 W/m2
21:00 8.2 °C 6.6 °C 1017.8 hPa South 4.8 km/h 12.9 km/h 90 % 0.0 mm 0 W/m2
21:10 8.3 °C 6.6 °C 1017.8 hPa SSW 4.8 km/h 11.3 km/h 89 % 0.0 mm 0 W/m2
21:15 8.3 °C 6.6 °C 1017.5 hPa SSW 8.0 km/h 12.9 km/h 89 % 0.0 mm 0 W/m2
21:20 8.4 °C 6.7 °C 1017.5 hPa South 8.0 km/h 12.9 km/h 89 % 0.0 mm 0 W/m2
21:25 8.4 °C 6.7 °C 1017.5 hPa South 6.4 km/h 12.9 km/h 89 % 0.0 mm 0 W/m2
21:30 8.5 °C 6.6 °C 1017.5 hPa SSW 3.2 km/h 12.9 km/h 88 % 0.0 mm 0 W/m2
21:35 8.6 °C 6.7 °C 1017.5 hPa SSE 8.0 km/h 14.5 km/h 88 % 0.0 mm 0 W/m2
21:40 8.6 °C 6.7 °C 1017.8 hPa South 4.8 km/h 14.5 km/h 88 % 0.0 mm 0 W/m2
21:45 8.7 °C 6.8 °C 1017.5 hPa SW 11.3 km/h 14.5 km/h 88 % 0.0 mm 0 W/m2
21:55 8.9 °C 6.9 °C 1017.5 hPa South 4.8 km/h 17.7 km/h 87 % 0.0 mm 0 W/m2
22:00 9.1 °C 7.0 °C 1017.5 hPa SSW 6.4 km/h 19.3 km/h 87 % 0.0 mm 0 W/m2
22:10 9.2 °C 7.1 °C 1017.5 hPa SW 11.3 km/h 19.3 km/h 87 % 0.0 mm 0 W/m2
22:15 9.2 °C 7.1 °C 1017.2 hPa SSW 8.0 km/h 19.3 km/h 87 % 0.0 mm 0 W/m2
22:20 9.2 °C 7.1 °C 1017.2 hPa SSW 9.7 km/h 17.7 km/h 87 % 0.0 mm 0 W/m2
22:25 9.2 °C 7.1 °C 1017.2 hPa SSW 11.3 km/h 17.7 km/h 87 % 0.0 mm 0 W/m2
22:30 9.2 °C 7.1 °C 1017.2 hPa SSW 6.4 km/h 17.7 km/h 87 % 0.0 mm 0 W/m2
22:40 9.2 °C 7.1 °C 1017.2 hPa SSW 9.7 km/h 20.9 km/h 87 % 0.0 mm 0 W/m2
22:45 9.2 °C 7.1 °C 1016.8 hPa SSW 6.4 km/h 19.3 km/h 87 % 0.0 mm 0 W/m2
22:50 9.1 °C 7.2 °C 1016.8 hPa South 9.7 km/h 19.3 km/h 88 % 0.0 mm 0 W/m2
22:55 9.1 °C 7.2 °C 1016.8 hPa SSW 8.0 km/h 17.7 km/h 88 % 0.0 mm 0 W/m2
23:00 9.1 °C 7.2 °C 1016.8 hPa SSW 19.3 km/h 19.3 km/h 88 % 0.0 mm 0 W/m2
23:10 9.0 °C 7.3 °C 1016.8 hPa SSW 1.6 km/h 19.3 km/h 89 % 0.0 mm 0 W/m2
23:15 9.1 °C 7.3 °C 1017.2 hPa WSW 4.8 km/h 17.7 km/h 89 % 0.0 mm 0 W/m2
23:20 9.2 °C 7.4 °C 1017.2 hPa SW 8.0 km/h 17.7 km/h 89 % 0.0 mm 0 W/m2
23:25 9.3 °C 7.6 °C 1017.2 hPa SW 11.3 km/h 17.7 km/h 89 % 0.0 mm 0 W/m2
23:30 9.3 °C 7.6 °C 1016.8 hPa SSW 8.0 km/h 17.7 km/h 89 % 0.0 mm 0 W/m2
23:35 9.4 °C 7.7 °C 1017.2 hPa WSW 8.0 km/h 14.5 km/h 89 % 0.0 mm 0 W/m2
23:40 9.4 °C 7.7 °C 1016.8 hPa SSW 6.4 km/h 16.1 km/h 89 % 0.0 mm 0 W/m2
23:45 9.5 °C 7.8 °C 1016.8 hPa SW 8.0 km/h 17.7 km/h 89 % 0.0 mm 0 W/m2
23:50 9.6 °C 7.8 °C 1016.8 hPa West 9.7 km/h 17.7 km/h 89 % 0.0 mm 0 W/m2
23:55 9.6 °C 7.9 °C 1016.8 hPa WSW 9.7 km/h 16.1 km/h 89 % 0.0 mm 0 W/m2
Avec l'autorisation de Weather Underground - 1.5 mb